This is the latest recevied weather packets stored in our database for station/object kj4yre. If no packets are shown the sender has not sent any weather packets the latest 10 day(s).
| Time | Temp. | Humidity | Pressure | Rain* | Wind** | Luminosity | Snow |
|---|---|---|---|---|---|---|---|
| 1777602908 | 15° C | 56% | 1014.3 hPa | 0 mm | - | - | - |
| 1777595406 | 15.56° C | 82% | 1011.3 hPa | 0 mm | - | - | - |
| 1777590006 | 20° C | 61% | 1009.2 hPa | 0 mm | - | - | - |
| 1777589405 | 21.67° C | 57% | 1009.1 hPa | 0 mm | - | - | - |
| 1777586407 | 21.11° C | 56% | 1009.3 hPa | 0 mm | - | - | - |
| 1777580405 | 22.78° C | 49% | 1008.7 hPa | 0 mm | - | - | - |
| 1777579805 | 24.44° C | 47% | 1008.7 hPa | 0 mm | - | - | - |
| 1777578306 | 22.22° C | 53% | 1008.7 hPa | 0 mm | - | - | - |
| 1777578006 | 22.22° C | 50% | 1008.7 hPa | 0 mm | - | - | - |
| 1777571705 | 22.22° C | 57% | 1009.6 hPa | 0 mm | - | - | - |
| 1777570505 | 20° C | 63% | 1009.8 hPa | 0 mm | - | - | - |
| 1777567806 | 20° C | 68% | 1010.1 hPa | 0 mm | - | - | - |
| 1777567505 | 20.56° C | 62% | 1010.1 hPa | 0 mm | - | - | - |
| 1777563905 | 18.33° C | 71% | 1010.5 hPa | 0 mm | - | - | - |
| 1777560006 | 17.22° C | 75% | 1010.7 hPa | 0 mm | - | - | - |
| 1777555206 | 15.56° C | 84% | 1010.5 hPa | 0 mm | - | - | - |
| 1777552505 | 15.56° C | 88% | 1010.3 hPa | 0 mm | - | - | - |
| 1777548306 | 14.44° C | 100% | 1009 hPa | 0 mm | - | - | - |
| 1777545905 | 14.44° C | 100% | 1007.6 hPa | 0 mm | - | - | - |
| 1777539606 | 14.44° C | 100% | 1007.2 hPa | 0 mm | - | - | - |
| 1777538705 | 13.33° C | 100% | 1007.2 hPa | 0 mm | - | - | - |
| 1777537205 | 13.89° C | 100% | 1007.1 hPa | 0 mm | - | - | - |
| 1777536306 | 13.89° C | 100% | 1007.1 hPa | 0 mm | - | - | - |
| 1777533304 | 13.89° C | 100% | 1007.1 hPa | 0 mm | - | - | - |
| 1777531206 | 15° C | 100% | 1006.9 hPa | 0 mm | - | - | - |
* Rain latest hour (hover to see other rain measurements)
** Current wind speed in m/s (hover to see current wind gust speed)